createdAt,value
2018-07-08T00:00:36.766Z,73.97
2018-07-08T00:01:36.751Z,73.79
2018-07-08T00:02:36.741Z,73.30
2018-07-08T00:03:36.729Z,73.40
2018-07-08T00:04:57.718Z,73.40
2018-07-08T00:05:36.718Z,73.55
2018-07-08T00:06:36.705Z,72.54
2018-07-08T00:07:36.690Z,71.87
2018-07-08T00:08:36.687Z,71.97
2018-07-08T00:09:36.668Z,72.83
2018-07-08T00:10:57.673Z,73.17
2018-07-08T00:11:36.656Z,73.27
2018-07-08T00:12:36.644Z,74.13
2018-07-08T00:13:36.627Z,73.94
2018-07-08T00:14:36.621Z,73.36
2018-07-08T00:15:36.612Z,73.46
2018-07-08T00:16:57.600Z,73.75
2018-07-08T00:17:36.595Z,73.17
2018-07-08T00:18:36.585Z,73.08
2018-07-08T00:19:36.571Z,73.55
2018-07-08T00:20:36.563Z,73.36
2018-07-08T00:21:36.552Z,73.84
2018-07-08T00:22:57.548Z,74.13
2018-07-08T00:23:36.534Z,73.75
2018-07-08T00:24:36.524Z,73.17
2018-07-08T00:25:36.510Z,73.27
2018-07-08T00:26:36.504Z,73.27
2018-07-08T00:27:36.491Z,73.17
2018-07-08T00:28:57.483Z,73.08
2018-07-08T00:29:36.465Z,72.69
2018-07-08T00:30:36.467Z,73.08
2018-07-08T00:31:36.447Z,73.36
2018-07-08T00:32:36.439Z,73.46
2018-07-08T00:33:36.426Z,73.55
2018-07-08T00:34:57.419Z,73.55
2018-07-08T00:35:36.419Z,73.75
2018-07-08T00:36:36.394Z,74.13
2018-07-08T00:37:36.385Z,73.84
2018-07-08T00:38:36.377Z,74.13
2018-07-08T00:39:36.367Z,73.84
2018-07-08T00:40:57.360Z,73.75
2018-07-08T00:41:36.344Z,73.94
2018-07-08T00:42:36.336Z,74.04
2018-07-08T00:43:36.323Z,73.94
2018-07-08T00:44:36.316Z,74.51
2018-07-08T00:45:36.310Z,74.70
2018-07-08T00:46:57.298Z,74.51
2018-07-08T00:47:36.284Z,74.61
2018-07-08T00:48:36.276Z,74.41
2018-07-08T00:49:36.261Z,74.51
2018-07-08T00:50:36.260Z,74.04
2018-07-08T00:51:36.242Z,74.04
2018-07-08T00:52:57.236Z,73.33
2018-07-08T00:53:36.220Z,73.80
2018-07-08T00:54:36.213Z,73.75
2018-07-08T00:55:36.202Z,73.94
2018-07-08T00:56:36.193Z,73.84
2018-07-08T00:57:36.177Z,73.43
2018-07-08T00:58:57.173Z,73.43
2018-07-08T00:59:36.165Z,73.36
2018-07-08T01:00:36.146Z,73.08
2018-07-08T01:01:36.171Z,73.52
2018-07-08T01:02:36.131Z,73.55
2018-07-08T01:03:36.120Z,73.99
2018-07-08T01:04:57.114Z,73.75
2018-07-08T01:05:36.101Z,74.76
2018-07-08T01:06:36.087Z,74.80
2018-07-08T01:07:36.079Z,73.46
2018-07-08T01:08:36.068Z,72.75
2018-07-08T01:09:36.055Z,72.69
2018-07-08T01:10:57.054Z,72.75
2018-07-08T01:11:36.038Z,72.75
2018-07-08T01:12:36.026Z,73.27
2018-07-08T01:13:36.019Z,74.09
2018-07-08T01:14:36.004Z,73.94
2018-07-08T01:15:35.996Z,74.48
2018-07-08T01:16:56.987Z,74.57
2018-07-08T01:17:35.976Z,74.76
2018-07-08T01:18:35.966Z,75.05
2018-07-08T01:19:35.950Z,75.52
2018-07-08T01:20:35.945Z,74.57
2018-07-08T01:21:35.937Z,74.48
2018-07-08T01:22:56.929Z,74.95
2018-07-08T01:23:35.914Z,75.24
2018-07-08T01:24:35.915Z,76.10
2018-07-08T01:25:35.892Z,75.34
2018-07-08T01:26:35.882Z,75.62
2018-07-08T01:27:35.908Z,75.62
2018-07-08T01:28:56.866Z,76.10
2018-07-08T01:29:35.855Z,75.62
2018-07-08T01:30:35.839Z,75.52
2018-07-08T01:31:35.834Z,75.81
2018-07-08T01:32:35.815Z,75.62
2018-07-08T01:33:35.806Z,74.85
2018-07-08T01:34:56.801Z,75.34
2018-07-08T01:35:35.795Z,75.52
2018-07-08T01:36:35.784Z,75.62
2018-07-08T01:37:35.769Z,76.00
2018-07-08T01:38:35.758Z,75.24
2018-07-08T01:39:35.746Z,74.85
2018-07-08T01:40:56.739Z,74.85
2018-07-08T01:41:35.722Z,75.62
2018-07-08T01:42:35.720Z,75.62
2018-07-08T01:43:35.701Z,74.95
2018-07-08T01:44:35.691Z,74.95
2018-07-08T01:45:35.681Z,74.38
2018-07-08T01:46:56.683Z,75.24
2018-07-08T01:47:35.662Z,74.76
2018-07-08T01:48:35.650Z,76.00
2018-07-08T01:49:35.641Z,75.81
2018-07-08T01:50:35.629Z,75.71
2018-07-08T01:51:35.625Z,75.71
2018-07-08T01:52:56.618Z,76.20
2018-07-08T01:53:35.608Z,76.48
2018-07-08T01:54:35.594Z,76.29
2018-07-08T01:55:35.581Z,76.29
2018-07-08T01:56:35.561Z,76.57
2018-07-08T01:57:35.558Z,75.81
2018-07-08T01:58:56.554Z,76.10
2018-07-08T01:59:35.537Z,75.43
2018-07-08T02:00:35.535Z,75.05
2018-07-08T02:01:35.521Z,75.62
2018-07-08T02:02:35.501Z,75.91
2018-07-08T02:03:35.496Z,75.62
2018-07-08T02:04:56.489Z,75.52
2018-07-08T02:05:35.473Z,75.62
2018-07-08T02:06:35.470Z,76.29
2018-07-08T02:07:35.449Z,76.29
2018-07-08T02:08:35.438Z,76.48
2018-07-08T02:09:35.437Z,76.67
2018-07-08T02:10:56.424Z,76.29
2018-07-08T02:11:35.411Z,75.91
2018-07-08T02:12:35.399Z,76.20
2018-07-08T02:13:35.393Z,76.20
2018-07-08T02:14:35.375Z,76.20
2018-07-08T02:15:35.374Z,76.00
2018-07-08T02:16:56.357Z,75.81
2018-07-08T02:17:35.345Z,75.43
2018-07-08T02:18:35.335Z,76.00
2018-07-08T02:19:35.325Z,76.00
2018-07-08T02:20:35.313Z,76.39
2018-07-08T02:21:35.305Z,76.20
2018-07-08T02:22:56.307Z,76.57
2018-07-08T02:23:35.287Z,76.39
2018-07-08T02:24:35.272Z,76.57
2018-07-08T02:25:35.260Z,76.92
2018-07-08T02:26:35.252Z,77.06
2018-07-08T02:27:35.239Z,77.06
2018-07-08T02:28:56.254Z,76.86
2018-07-08T02:29:35.216Z,76.77
2018-07-08T02:30:35.208Z,76.29
2018-07-08T02:31:35.198Z,76.25
2018-07-08T02:32:35.185Z,76.20
2018-07-08T02:33:35.177Z,76.77
2018-07-08T02:34:56.184Z,76.45
2018-07-08T02:35:35.155Z,76.25
2018-07-08T02:36:35.147Z,76.00
2018-07-08T02:37:35.135Z,75.87
2018-07-08T02:38:35.127Z,75.01
2018-07-08T02:39:35.119Z,75.10
2018-07-08T02:40:56.113Z,75.20
2018-07-08T02:41:35.094Z,75.49
2018-07-08T02:42:35.079Z,75.78
2018-07-08T02:43:35.070Z,75.68
2018-07-08T02:44:35.059Z,76.16
2018-07-08T02:45:35.050Z,76.64
2018-07-08T02:46:56.044Z,76.45
2018-07-08T02:47:35.030Z,75.96
2018-07-08T02:48:35.027Z,76.45
2018-07-08T02:49:35.008Z,76.73
2018-07-08T02:50:35.008Z,76.82
2018-07-08T02:51:34.990Z,76.35
2018-07-08T02:52:55.985Z,75.78
2018-07-08T02:53:34.970Z,75.59
2018-07-08T02:54:34.959Z,75.39
2018-07-08T02:55:34.952Z,75.87
2018-07-08T02:56:34.934Z,75.96
2018-07-08T02:57:34.920Z,76.73
2018-07-08T02:58:55.918Z,77.01
2018-07-08T02:59:34.902Z,76.92
2018-07-08T03:00:34.895Z,77.69
2018-07-08T03:01:34.903Z,77.59
2018-07-08T03:02:34.874Z,77.59
2018-07-08T03:03:34.866Z,77.50
2018-07-08T03:04:55.853Z,77.01
2018-07-08T03:05:34.838Z,76.73
2018-07-08T03:06:34.829Z,76.54
2018-07-08T03:07:34.836Z,76.73
2018-07-08T03:08:34.812Z,76.64
2018-07-08T03:09:34.796Z,77.21
2018-07-08T03:10:55.802Z,76.16
2018-07-08T03:11:34.778Z,75.68
2018-07-08T03:12:34.763Z,75.78
2018-07-08T03:13:34.755Z,75.59
2018-07-08T03:14:34.739Z,75.78
2018-07-08T03:15:34.732Z,76.06
2018-07-08T03:16:55.721Z,75.96
2018-07-08T03:17:34.704Z,76.25
2018-07-08T03:18:34.695Z,76.64
2018-07-08T03:19:34.688Z,76.25
2018-07-08T03:20:34.670Z,76.92
2018-07-08T03:21:34.664Z,77.01
2018-07-08T03:22:55.666Z,76.92
2018-07-08T03:23:34.653Z,77.40
2018-07-08T03:24:34.632Z,77.59
2018-07-08T03:25:34.626Z,77.59
2018-07-08T03:26:34.615Z,77.11
2018-07-08T03:27:34.614Z,76.73
2018-07-08T03:28:55.597Z,76.92
2018-07-08T03:29:34.576Z,77.01
2018-07-08T03:30:34.575Z,77.01
2018-07-08T03:31:34.562Z,76.82
2018-07-08T03:32:34.549Z,76.82
2018-07-08T03:33:34.607Z,76.64
2018-07-08T03:34:55.533Z,76.92
2018-07-08T03:35:34.516Z,77.01
2018-07-08T03:36:34.500Z,76.64
2018-07-08T03:37:34.498Z,77.11
2018-07-08T03:38:34.488Z,75.68
2018-07-08T03:39:34.477Z,75.68
2018-07-08T03:40:55.463Z,75.39
2018-07-08T03:41:34.449Z,75.78
2018-07-08T03:42:34.456Z,75.59
2018-07-08T03:43:34.428Z,76.25
2018-07-08T03:44:34.414Z,76.82
2018-07-08T03:45:34.402Z,76.73
2018-07-08T03:46:55.400Z,77.87
2018-07-08T03:47:34.386Z,78.41
2018-07-08T03:48:34.376Z,78.36
2018-07-08T03:49:34.364Z,78.26
2018-07-08T03:50:34.356Z,77.78
2018-07-08T03:51:34.341Z,77.01
2018-07-08T03:52:55.339Z,76.64
2018-07-08T03:53:34.320Z,76.35
2018-07-08T03:54:34.311Z,76.16
2018-07-08T03:55:34.299Z,75.93
2018-07-08T03:56:34.293Z,76.06
2018-07-08T03:57:34.275Z,76.69
2018-07-08T03:58:55.273Z,77.17
2018-07-08T03:59:34.260Z,76.82
2018-07-08T04:00:34.246Z,77.36
2018-07-08T04:01:34.236Z,77.69
2018-07-08T04:02:34.230Z,77.84
2018-07-08T04:03:34.212Z,77.84
2018-07-08T04:04:55.204Z,78.26
2018-07-08T04:05:34.186Z,78.89
2018-07-08T04:06:34.186Z,79.31
2018-07-08T04:07:34.169Z,78.93
2018-07-08T04:08:34.155Z,78.55
2018-07-08T04:09:34.143Z,78.26
2018-07-08T04:10:55.141Z,77.78
2018-07-08T04:11:34.126Z,77.30
2018-07-08T04:12:34.118Z,77.97
2018-07-08T04:13:34.108Z,78.55
2018-07-08T04:14:34.094Z,78.26
2018-07-08T04:15:34.083Z,78.64
2018-07-08T04:16:55.073Z,78.74
2018-07-08T04:17:34.063Z,78.26
2018-07-08T04:18:34.051Z,78.45
2018-07-08T04:19:34.041Z,78.64
2018-07-08T04:20:34.027Z,78.93
2018-07-08T04:21:34.017Z,78.83
2018-07-08T04:22:55.012Z,78.64
2018-07-08T04:23:33.998Z,78.45
2018-07-08T04:24:33.984Z,77.59
2018-07-08T04:25:33.976Z,77.59
2018-07-08T04:26:33.963Z,77.11
2018-07-08T04:27:36.836Z,77.78
2018-07-08T04:28:54.946Z,77.21
2018-07-08T04:29:33.930Z,78.36
2018-07-08T04:30:33.932Z,79.02
2018-07-08T04:31:33.905Z,78.83
2018-07-08T04:32:33.899Z,79.12
2018-07-08T04:33:33.893Z,79.22
2018-07-08T04:34:54.883Z,79.31
2018-07-08T04:35:33.866Z,79.50
2018-07-08T04:36:33.857Z,79.60
2018-07-08T04:37:33.849Z,79.12
2018-07-08T04:38:33.829Z,78.93
2018-07-08T04:39:33.827Z,78.83
2018-07-08T04:40:54.818Z,78.83
2018-07-08T04:41:33.804Z,78.93
2018-07-08T04:42:33.794Z,79.12
2018-07-08T04:43:33.779Z,79.12
2018-07-08T04:44:33.770Z,78.83
2018-07-08T04:45:33.759Z,79.60
2018-07-08T04:46:54.753Z,79.69
2018-07-08T04:47:33.736Z,79.22
2018-07-08T04:48:33.728Z,79.22
2018-07-08T04:49:33.716Z,79.41
2018-07-08T04:50:33.708Z,79.41
2018-07-08T04:51:33.690Z,78.36
2018-07-08T04:52:54.688Z,78.07
2018-07-08T04:53:33.672Z,78.16
2018-07-08T04:54:33.666Z,78.83
2018-07-08T04:55:33.647Z,78.07
2018-07-08T04:56:33.639Z,78.16
2018-07-08T04:57:33.628Z,78.83
2018-07-08T04:58:54.626Z,78.74
2018-07-08T04:59:33.611Z,79.02
2018-07-08T05:00:33.594Z,78.74
2018-07-08T05:01:33.581Z,79.60
2018-07-08T05:02:33.572Z,79.60
2018-07-08T05:03:33.567Z,79.98
2018-07-08T05:04:54.554Z,79.60
2018-07-08T05:05:33.538Z,79.31
2018-07-08T05:06:33.545Z,80.27
2018-07-08T05:07:33.523Z,80.46
2018-07-08T05:08:33.512Z,79.41
2018-07-08T05:09:33.496Z,79.50
2018-07-08T05:10:54.492Z,79.50
2018-07-08T05:11:33.480Z,79.98
2018-07-08T05:12:33.466Z,78.36
2018-07-08T05:13:33.454Z,78.16
2018-07-08T05:14:33.450Z,78.16
2018-07-08T05:15:33.435Z,78.93
2018-07-08T05:16:54.431Z,79.50
2018-07-08T05:17:33.414Z,79.50
2018-07-08T05:18:33.406Z,79.22
2018-07-08T05:19:33.396Z,79.60
2018-07-08T05:20:33.385Z,80.07
2018-07-08T05:21:33.370Z,80.17
2018-07-08T05:22:55.286Z,80.07
2018-07-08T05:23:33.349Z,79.79
2018-07-08T05:24:33.352Z,80.17
2018-07-08T05:25:33.327Z,80.07
2018-07-08T05:26:33.317Z,80.27
2018-07-08T05:27:33.308Z,80.07
2018-07-08T05:28:54.297Z,80.11
2018-07-08T05:29:33.285Z,80.02
2018-07-08T05:30:33.273Z,80.11
2018-07-08T05:31:33.278Z,80.21
2018-07-08T05:32:33.248Z,79.93
2018-07-08T05:33:33.244Z,80.40
2018-07-08T05:34:54.236Z,80.30
2018-07-08T05:35:33.233Z,80.30
2018-07-08T05:36:33.243Z,79.83
2018-07-08T05:37:33.199Z,79.44
2018-07-08T05:38:33.190Z,79.83
2018-07-08T05:39:33.180Z,79.64
2018-07-08T05:40:54.176Z,79.64
2018-07-08T05:41:33.154Z,79.44
2018-07-08T05:42:33.148Z,79.54
2018-07-08T05:43:33.134Z,79.83
2018-07-08T05:44:33.120Z,79.73
2018-07-08T05:45:33.118Z,80.02
2018-07-08T05:46:54.106Z,80.02
2018-07-08T05:47:33.089Z,79.64
2018-07-08T05:48:33.082Z,79.44
2018-07-08T05:49:33.066Z,79.16
2018-07-08T05:50:33.112Z,79.44
2018-07-08T05:51:33.054Z,79.64
2018-07-08T05:52:54.046Z,79.54
2018-07-08T05:53:33.030Z,79.64
2018-07-08T05:54:33.020Z,79.25
2018-07-08T05:55:33.011Z,79.73
2018-07-08T05:56:32.991Z,79.64
2018-07-08T05:57:32.983Z,79.73
2018-07-08T05:58:53.977Z,79.16
2018-07-08T05:59:32.966Z,79.44
2018-07-08T06:00:32.962Z,79.44
2018-07-08T06:01:32.941Z,79.54
2018-07-08T06:02:32.932Z,80.11
2018-07-08T06:03:32.927Z,80.69
2018-07-08T06:04:53.915Z,80.02
2018-07-08T06:05:32.900Z,80.30
2018-07-08T06:06:32.895Z,80.11
2018-07-08T06:07:32.907Z,80.40
2018-07-08T06:08:32.866Z,79.54
2018-07-08T06:09:32.859Z,79.87
2018-07-08T06:10:53.844Z,79.49
2018-07-08T06:11:32.841Z,79.49
2018-07-08T06:12:32.824Z,79.20
2018-07-08T06:13:32.817Z,79.20
2018-07-08T06:14:32.811Z,78.81
2018-07-08T06:15:32.792Z,78.24
2018-07-08T06:16:53.791Z,78.76
2018-07-08T06:17:32.779Z,77.99
2018-07-08T06:18:32.764Z,77.70
2018-07-08T06:19:32.770Z,78.28
2018-07-08T06:20:32.737Z,78.38
2018-07-08T06:21:32.728Z,78.32
2018-07-08T06:22:53.724Z,78.03
2018-07-08T06:23:32.713Z,77.36
2018-07-08T06:24:32.699Z,76.69
2018-07-08T06:25:32.689Z,76.31
2018-07-08T06:26:32.694Z,76.21
2018-07-08T06:27:32.671Z,76.21
2018-07-08T06:28:53.665Z,76.31
2018-07-08T06:29:32.653Z,76.06
2018-07-08T06:30:32.633Z,75.87
2018-07-08T06:31:32.624Z,76.25
2018-07-08T06:32:32.618Z,75.68
2018-07-08T06:33:32.616Z,75.29
2018-07-08T06:34:53.609Z,75.29
2018-07-08T06:35:32.590Z,75.20
2018-07-08T06:36:32.575Z,75.23
2018-07-08T06:37:32.568Z,75.14
2018-07-08T06:38:32.557Z,74.47
2018-07-08T06:39:32.554Z,74.85
2018-07-08T06:40:53.545Z,74.18
2018-07-08T06:41:32.535Z,74.27
2018-07-08T06:42:32.522Z,74.47
2018-07-08T06:43:32.509Z,73.83
2018-07-08T06:44:32.504Z,73.74
2018-07-08T06:45:32.537Z,73.65
2018-07-08T06:46:53.487Z,72.88
2018-07-08T06:47:32.476Z,72.68
2018-07-08T06:48:32.464Z,72.59
2018-07-08T06:49:32.447Z,73.35
2018-07-08T06:50:32.442Z,73.83
2018-07-08T06:51:32.432Z,73.30
2018-07-08T06:52:53.434Z,72.97
2018-07-08T06:53:32.415Z,72.14
2018-07-08T06:54:32.411Z,71.19
2018-07-08T06:55:32.390Z,70.57
2018-07-08T06:56:32.387Z,70.48
2018-07-08T06:57:32.378Z,70.67
2018-07-08T06:58:53.375Z,70.76
2018-07-08T06:59:32.355Z,71.63
2018-07-08T07:00:32.362Z,71.47
2018-07-08T07:01:32.346Z,71.19
2018-07-08T07:02:32.324Z,70.32
2018-07-08T07:03:32.318Z,69.74
2018-07-08T07:04:53.316Z,70.13
2018-07-08T07:05:32.304Z,70.13
2018-07-08T07:06:32.298Z,69.74
2018-07-08T07:07:32.278Z,69.97
2018-07-08T07:08:32.273Z,70.74
2018-07-08T07:09:32.264Z,69.59
2018-07-08T07:10:53.265Z,68.82
2018-07-08T07:11:32.248Z,69.78
2018-07-08T07:12:32.243Z,70.84
2018-07-08T07:13:32.228Z,71.03
2018-07-08T07:14:32.222Z,70.36
2018-07-08T07:15:32.218Z,70.64
2018-07-08T07:16:53.212Z,70.64
2018-07-08T07:17:32.220Z,69.62
2018-07-08T07:18:32.188Z,70.58
2018-07-08T07:19:32.176Z,70.20
2018-07-08T07:20:32.165Z,70.01
2018-07-08T07:21:32.153Z,69.72
2018-07-08T07:22:53.163Z,69.72
2018-07-08T07:23:32.137Z,68.95
2018-07-08T07:24:32.127Z,69.81
2018-07-08T07:25:32.123Z,70.10
2018-07-08T07:26:32.112Z,69.14
2018-07-08T07:27:32.119Z,68.66
2018-07-08T07:28:53.100Z,68.51
2018-07-08T07:29:32.092Z,67.93
2018-07-08T07:30:32.077Z,67.93
2018-07-08T07:31:32.069Z,68.41
2018-07-08T07:32:32.059Z,68.21
2018-07-08T07:33:32.052Z,68.12
2018-07-08T07:34:53.052Z,67.45
2018-07-08T07:35:32.036Z,68.31
2018-07-08T07:36:32.028Z,68.70
2018-07-08T07:37:32.021Z,67.16
2018-07-08T07:38:32.008Z,66.58
2018-07-08T07:39:31.996Z,66.58
2018-07-08T07:40:52.994Z,63.79
2018-07-08T07:41:31.989Z,63.60
2018-07-08T07:42:31.972Z,66.71
2018-07-08T07:43:31.966Z,66.58
2018-07-08T07:44:31.963Z,66.10
2018-07-08T07:45:31.992Z,64.56
2018-07-08T07:46:52.946Z,64.09
2018-07-08T07:47:31.933Z,63.60
2018-07-08T07:48:31.921Z,63.70
2018-07-08T07:49:31.916Z,62.93
2018-07-08T07:50:31.909Z,65.05
2018-07-08T07:51:31.900Z,65.81
2018-07-08T07:52:52.896Z,64.31
2018-07-08T07:53:31.901Z,65.17
2018-07-08T07:54:31.876Z,65.94
2018-07-08T07:55:31.869Z,65.62
2018-07-08T07:56:31.859Z,66.68
2018-07-08T07:57:31.851Z,66.20
2018-07-08T07:58:52.900Z,65.05
2018-07-08T07:59:31.835Z,65.81
2018-07-08T08:00:31.826Z,66.20
2018-07-08T08:01:31.812Z,66.30
2018-07-08T08:02:31.804Z,66.39
2018-07-08T08:03:31.799Z,66.97
2018-07-08T08:04:52.794Z,69.37
2018-07-08T08:05:31.793Z,70.62
2018-07-08T08:06:31.770Z,69.56
2018-07-08T08:07:31.770Z,67.96
2018-07-08T08:08:31.758Z,66.71
2018-07-08T08:09:31.742Z,67.29
2018-07-08T08:10:52.743Z,65.46
2018-07-08T08:11:31.732Z,64.02
2018-07-08T08:12:31.723Z,63.06
2018-07-08T08:13:31.715Z,63.92
2018-07-08T08:14:31.707Z,66.23
2018-07-08T08:15:31.698Z,66.71
2018-07-08T08:16:52.696Z,65.27
2018-07-08T08:17:31.681Z,66.14
2018-07-08T08:18:31.668Z,64.98
2018-07-08T08:19:31.668Z,65.56
2018-07-08T08:20:31.658Z,66.91
2018-07-08T08:21:31.653Z,67.16
2018-07-08T08:22:52.642Z,66.87
2018-07-08T08:23:31.635Z,66.71
2018-07-08T08:24:31.626Z,66.81
2018-07-08T08:25:31.621Z,68.25
2018-07-08T08:26:31.682Z,68.15
2018-07-08T08:27:31.602Z,68.44
2018-07-08T08:28:52.599Z,68.57
2018-07-08T08:29:31.578Z,68.38
2018-07-08T08:30:31.579Z,68.48
2018-07-08T08:31:31.563Z,66.94
2018-07-08T08:32:31.565Z,65.20
2018-07-08T08:33:31.546Z,62.99
2018-07-08T08:34:52.552Z,59.82
2018-07-08T08:35:31.533Z,63.09
2018-07-08T08:36:31.529Z,64.15
2018-07-08T08:37:31.531Z,60.81
2018-07-08T08:38:31.509Z,60.52
2018-07-08T08:39:31.507Z,62.06
2018-07-08T08:40:52.490Z,58.12
2018-07-08T08:41:31.485Z,56.58
2018-07-08T08:42:31.480Z,56.38
2018-07-08T08:43:31.465Z,56.10
2018-07-08T08:44:31.460Z,56.00
2018-07-08T08:45:31.454Z,55.62
2018-07-08T08:46:52.454Z,55.83
2018-07-08T08:47:31.437Z,56.12
2018-07-08T08:48:31.436Z,56.90
2018-07-08T08:49:31.435Z,56.41
2018-07-08T08:50:31.417Z,56.22
2018-07-08T08:51:31.409Z,57.09
2018-07-08T08:52:52.422Z,57.67
2018-07-08T08:53:31.389Z,56.67
2018-07-08T08:54:31.385Z,57.37
2018-07-08T08:55:31.382Z,56.32
2018-07-08T08:56:31.368Z,55.07
2018-07-08T08:57:31.360Z,55.74
2018-07-08T08:58:52.364Z,57.37
2018-07-08T08:59:31.349Z,56.22
2018-07-08T09:00:31.341Z,56.03
2018-07-08T09:01:31.337Z,55.83
2018-07-08T09:02:31.333Z,55.90
2018-07-08T09:03:31.320Z,56.00
2018-07-08T09:04:52.316Z,55.16
2018-07-08T09:05:31.309Z,55.16
2018-07-08T09:06:31.292Z,55.26
2018-07-08T09:07:31.285Z,57.79
2018-07-08T09:08:31.276Z,60.58
2018-07-08T09:09:31.272Z,55.96
2018-07-08T09:10:52.353Z,57.60
2018-07-08T09:11:31.255Z,57.79
2018-07-08T09:12:31.242Z,57.40
2018-07-08T09:13:31.243Z,56.05
2018-07-08T09:14:31.231Z,55.22
2018-07-08T09:15:31.229Z,54.54
2018-07-08T09:16:52.227Z,54.90
2018-07-08T09:17:31.211Z,55.31
2018-07-08T09:18:31.201Z,58.20
2018-07-08T09:19:31.200Z,55.99
2018-07-08T09:20:31.183Z,55.31
2018-07-08T09:21:31.178Z,52.71
2018-07-08T09:22:52.181Z,52.91
2018-07-08T09:23:31.166Z,53.77
2018-07-08T09:24:31.165Z,54.83
2018-07-08T09:25:31.161Z,54.93
2018-07-08T09:26:31.146Z,54.44
2018-07-08T09:27:31.137Z,54.06
2018-07-08T09:28:52.140Z,53.58
2018-07-08T09:29:31.122Z,55.22
2018-07-08T09:30:31.121Z,55.89
2018-07-08T09:31:31.110Z,55.79
2018-07-08T09:32:31.100Z,55.12
2018-07-08T09:33:31.088Z,54.74
2018-07-08T09:34:52.095Z,55.22
2018-07-08T09:35:31.101Z,55.02
2018-07-08T09:36:31.071Z,54.06
2018-07-08T09:37:31.065Z,54.35
2018-07-08T09:38:31.091Z,54.09
2018-07-08T09:39:31.054Z,53.22
2018-07-08T09:40:52.055Z,53.87
2018-07-08T09:41:31.039Z,53.19
2018-07-08T09:42:31.038Z,53.13
2018-07-08T09:43:31.020Z,53.22
2018-07-08T09:44:31.015Z,53.03
2018-07-08T09:45:31.014Z,53.22
2018-07-08T09:46:52.008Z,52.93
2018-07-08T09:47:30.990Z,54.28
2018-07-08T09:48:30.990Z,54.38
2018-07-08T09:49:30.984Z,53.22
2018-07-08T09:50:30.971Z,52.93
2018-07-08T09:51:30.967Z,53.41
2018-07-08T09:52:51.965Z,53.31
2018-07-08T09:53:30.949Z,51.84
2018-07-08T09:54:30.951Z,52.52
2018-07-08T09:55:30.940Z,51.20
2018-07-08T09:56:30.935Z,52.45
2018-07-08T09:57:30.943Z,53.51
2018-07-08T09:58:51.923Z,52.55
2018-07-08T09:59:30.915Z,53.22
2018-07-08T10:00:30.901Z,51.87
2018-07-08T10:01:30.894Z,51.39
2018-07-08T10:02:30.884Z,52.35
2018-07-08T10:03:30.879Z,52.16
2018-07-08T10:04:51.896Z,53.22
2018-07-08T10:05:30.869Z,53.05
2018-07-08T10:06:30.868Z,51.80
2018-07-08T10:07:30.868Z,51.89
2018-07-08T10:08:30.846Z,51.99
2018-07-08T10:09:30.836Z,51.51
2018-07-08T10:10:51.920Z,51.61
2018-07-08T10:11:30.831Z,51.61
2018-07-08T10:12:30.822Z,51.05
2018-07-08T10:13:30.805Z,50.57
2018-07-08T10:14:30.809Z,49.12
2018-07-08T10:15:30.805Z,50.96
2018-07-08T10:16:51.802Z,51.92
2018-07-08T10:17:30.796Z,51.53
2018-07-08T10:18:30.779Z,51.05
2018-07-08T10:19:30.819Z,53.47
2018-07-08T10:20:30.763Z,52.40
2018-07-08T10:21:30.765Z,52.21
2018-07-08T10:22:51.790Z,51.15
2018-07-08T10:23:30.745Z,50.76
2018-07-08T10:24:30.734Z,51.92
2018-07-08T10:25:30.734Z,51.44
2018-07-08T10:26:30.730Z,52.50
2018-07-08T10:27:30.715Z,52.21
2018-07-08T10:28:51.717Z,51.12
2018-07-08T10:29:30.712Z,51.15
2018-07-08T10:30:30.704Z,51.15
2018-07-08T10:31:30.685Z,51.15
2018-07-08T10:32:30.687Z,50.57
2018-07-08T10:33:30.676Z,51.15
2018-07-08T10:34:51.681Z,52.50
2018-07-08T10:35:30.665Z,51.75
2018-07-08T10:36:30.711Z,52.04
2018-07-08T10:37:30.655Z,52.23
2018-07-08T10:38:30.645Z,51.07
2018-07-08T10:39:30.641Z,49.73
2018-07-08T10:40:51.633Z,49.92
2018-07-08T10:41:30.622Z,50.91
2018-07-08T10:42:30.619Z,50.23
2018-07-08T10:43:30.724Z,49.73
2018-07-08T10:44:30.603Z,49.92
2018-07-08T10:45:30.599Z,49.24
2018-07-08T10:46:51.600Z,49.24
2018-07-08T10:47:30.585Z,48.86
2018-07-08T10:48:30.580Z,49.46
2018-07-08T10:49:30.571Z,50.62
2018-07-08T10:50:30.568Z,50.91
2018-07-08T10:51:30.559Z,49.15
2018-07-08T10:52:51.560Z,48.37
2018-07-08T10:53:30.547Z,49.82
2018-07-08T10:54:30.535Z,48.95
2018-07-08T10:55:30.623Z,49.24
2018-07-08T10:56:30.529Z,50.38
2018-07-08T10:57:30.523Z,50.50
2018-07-08T10:58:51.518Z,50.11
2018-07-08T10:59:30.512Z,50.11
2018-07-08T11:00:30.502Z,49.73
2018-07-08T11:01:30.501Z,50.50
2018-07-08T11:02:30.492Z,49.73
2018-07-08T11:03:30.483Z,49.05
2018-07-08T11:04:51.479Z,48.83
2018-07-08T11:05:30.470Z,49.73
2018-07-08T11:06:30.467Z,49.82
2018-07-08T11:07:30.457Z,49.92
2018-07-08T11:08:30.453Z,49.53
2018-07-08T11:09:30.441Z,49.95
2018-07-08T11:10:51.446Z,50.23
2018-07-08T11:11:30.477Z,49.07
2018-07-08T11:12:30.426Z,48.69
2018-07-08T11:13:30.418Z,48.59
2018-07-08T11:14:30.418Z,50.11
2018-07-08T11:15:30.408Z,48.08
2018-07-08T11:16:51.410Z,46.83
2018-07-08T11:17:30.392Z,46.92
2018-07-08T11:18:30.386Z,48.57
2018-07-08T11:19:30.383Z,48.16
2018-07-08T11:20:30.407Z,49.02
2018-07-08T11:21:30.367Z,48.37
2018-07-08T11:22:51.363Z,49.73
2018-07-08T11:23:30.355Z,48.93
2018-07-08T11:24:30.347Z,48.95
2018-07-08T11:25:30.339Z,47.50
2018-07-08T11:26:30.339Z,48.08
2018-07-08T11:27:30.326Z,48.47
2018-07-08T11:28:51.331Z,48.79
2018-07-08T11:29:30.312Z,48.69
2018-07-08T11:30:30.310Z,48.30
2018-07-08T11:31:30.302Z,48.69
2018-07-08T11:32:30.295Z,52.36
2018-07-08T11:33:30.291Z,50.23
2018-07-08T11:34:51.290Z,49.95
2018-07-08T11:35:30.279Z,51.29
2018-07-08T11:36:30.277Z,49.85
2018-07-08T11:37:30.267Z,48.49
2018-07-08T11:38:30.256Z,49.00
2018-07-08T11:39:30.256Z,48.61
2018-07-08T11:40:51.253Z,48.90
2018-07-08T11:41:30.248Z,48.30
2018-07-08T11:42:30.240Z,48.49
2018-07-08T11:43:30.225Z,49.37
2018-07-08T11:44:30.217Z,49.27
2018-07-08T11:45:30.223Z,48.49
2018-07-08T11:46:51.225Z,50.04
2018-07-08T11:47:30.210Z,50.52
2018-07-08T11:48:30.198Z,49.27
2018-07-08T11:49:30.191Z,49.46
2018-07-08T11:50:30.189Z,48.69
2018-07-08T11:51:30.175Z,48.71
2018-07-08T11:52:51.179Z,50.26
2018-07-08T11:53:30.169Z,49.90
2018-07-08T11:54:30.159Z,46.22
2018-07-08T11:55:30.199Z,46.61
2018-07-08T11:56:30.157Z,47.09
2018-07-08T11:57:30.145Z,47.58
2018-07-08T11:58:51.139Z,45.64
2018-07-08T11:59:30.129Z,47.50
2018-07-08T12:00:30.122Z,47.31
2018-07-08T12:01:30.118Z,48.35
2018-07-08T12:02:30.113Z,48.74
2018-07-08T12:03:30.109Z,46.53
2018-07-08T12:04:51.102Z,48.95
2018-07-08T12:05:30.096Z,49.05
2018-07-08T12:06:30.208Z,48.79
2018-07-08T12:07:30.091Z,47.21
2018-07-08T12:08:30.078Z,47.11
2018-07-08T12:09:30.074Z,47.43
2018-07-08T12:10:51.075Z,48.20
2018-07-08T12:11:30.053Z,48.08
2018-07-08T12:12:30.055Z,47.41
2018-07-08T12:13:30.051Z,47.19
2018-07-08T12:14:30.076Z,47.19
2018-07-08T12:15:30.038Z,47.19
2018-07-08T12:16:51.040Z,48.25
2018-07-08T12:17:30.022Z,48.76
2018-07-08T12:18:30.022Z,47.79
2018-07-08T12:19:30.016Z,46.63
2018-07-08T12:20:30.015Z,47.33
2018-07-08T12:21:30.008Z,50.04
2018-07-08T12:22:51.002Z,48.47
2018-07-08T12:23:29.991Z,47.11
2018-07-08T12:24:29.988Z,46.92
2018-07-08T12:25:29.982Z,46.83
2018-07-08T12:26:30.936Z,47.31
2018-07-08T12:27:30.007Z,49.56
2018-07-08T12:28:50.971Z,49.07
2018-07-08T12:29:29.956Z,47.33
2018-07-08T12:30:29.954Z,46.56
2018-07-08T12:31:29.951Z,46.97
2018-07-08T12:32:29.945Z,45.49
2018-07-08T12:33:29.935Z,45.01
2018-07-08T12:34:50.944Z,46.84
2018-07-08T12:35:29.929Z,47.43
2018-07-08T12:36:29.923Z,50.26
2018-07-08T12:37:29.915Z,48.79
2018-07-08T12:38:29.907Z,47.62
2018-07-08T12:39:29.906Z,47.52
2018-07-08T12:40:50.909Z,46.66
2018-07-08T12:41:29.894Z,47.79
2018-07-08T12:42:29.892Z,47.69
2018-07-08T12:43:29.881Z,48.37
2018-07-08T12:44:29.928Z,47.67
2018-07-08T12:45:29.878Z,48.35
2018-07-08T12:46:50.891Z,48.74
2018-07-08T12:47:29.856Z,48.71
2018-07-08T12:48:29.860Z,48.32
2018-07-08T12:49:29.853Z,48.61
2018-07-08T12:50:29.845Z,49.29
2018-07-08T12:51:29.842Z,48.69
2018-07-08T12:52:50.841Z,48.69